Terminal Aerodrome Forecast
Issued by NWS Medford, OR

Home | Current Version | Previous Version | Text Only | Print | Product List | Glossary On
Versions: 1 2 3 4 5 6 7 8 9 10 11 12 13
000
FTUS46 KMFR 161700 RRA
TAFMFR
TAF
KMFR 161743Z 1618/1718 VRB03KT P6SM FEW140
     FM162200 32009KT P6SM FEW120 BKN250
     FM170500 VRB03KT P6SM SCT150 OVC200
     FM171500 14005KT P6SM BKN200=

USA.gov is the U.S. government's official web portal to all federal, state and local government web resources and services.